createdAt,value
2019-03-23T00:02:12.700Z,97.20
2019-03-23T00:04:41.258Z,97.40
2019-03-23T00:07:09.938Z,97.80
2019-03-23T00:09:38.396Z,97.50
2019-03-23T00:12:06.932Z,98.20
2019-03-23T00:14:35.400Z,98.10
2019-03-23T00:17:03.944Z,98.60
2019-03-23T00:19:32.459Z,98.50
2019-03-23T00:22:00.994Z,98.30
2019-03-23T00:24:29.528Z,98.40
2019-03-23T00:26:58.028Z,98.90
2019-03-23T00:29:26.567Z,99.20
2019-03-23T00:31:55.040Z,99.10
2019-03-23T00:34:23.547Z,98.60
2019-03-23T00:36:52.021Z,98.60
2019-03-23T00:39:20.619Z,98.70
2019-03-23T00:41:49.125Z,98.50
2019-03-23T00:44:17.655Z,98.50
2019-03-23T00:46:46.132Z,98.50
2019-03-23T00:49:14.636Z,98.80
2019-03-23T00:51:43.094Z,98.70
2019-03-23T00:54:11.564Z,98.90
2019-03-23T00:56:40.060Z,99.10
2019-03-23T00:59:08.535Z,99.10
2019-03-23T01:01:37.002Z,99.10
2019-03-23T01:04:05.564Z,99.80
2019-03-23T01:06:34.091Z,99.40
2019-03-23T01:09:04.409Z,99.30
2019-03-23T01:11:32.970Z,99.30
2019-03-23T01:14:01.440Z,99.50
2019-03-23T01:16:29.904Z,99.80
2019-03-23T01:18:58.490Z,99.90
2019-03-23T01:21:27.032Z,99.90
2019-03-23T01:23:55.495Z,99.50
2019-03-23T01:26:23.995Z,99.10
2019-03-23T01:28:52.464Z,98.80
2019-03-23T01:31:20.940Z,99.30
2019-03-23T01:33:49.437Z,99.40
2019-03-23T01:36:17.900Z,98.90
2019-03-23T01:38:46.370Z,99.00
2019-03-23T01:41:14.882Z,98.10
2019-03-23T01:43:43.344Z,98.40
2019-03-23T01:46:11.808Z,98.40
2019-03-23T01:48:40.307Z,99.10
2019-03-23T01:51:08.915Z,99.00
2019-03-23T01:53:37.466Z,99.00
2019-03-23T01:56:05.977Z,99.60
2019-03-23T01:58:34.512Z,99.40
2019-03-23T02:01:02.990Z,99.60
2019-03-23T02:03:31.497Z,99.70
2019-03-23T02:05:59.967Z,99.80
2019-03-23T02:08:28.435Z,99.90
2019-03-23T02:10:57.468Z,99.90
2019-03-23T02:13:25.931Z,99.90
2019-03-23T02:15:54.408Z,99.80
2019-03-23T02:18:22.904Z,99.80
2019-03-23T02:20:51.505Z,99.30
2019-03-23T02:23:19.977Z,99.10
2019-03-23T02:25:48.484Z,98.90
2019-03-23T02:28:17.016Z,98.90
2019-03-23T02:30:45.546Z,99.30
2019-03-23T02:33:14.129Z,99.60
2019-03-23T02:35:42.664Z,99.40
2019-03-23T02:38:11.130Z,99.50
2019-03-23T02:40:39.694Z,99.30
2019-03-23T02:43:08.159Z,98.90
2019-03-23T02:45:36.635Z,98.60
2019-03-23T02:48:06.005Z,98.30
2019-03-23T02:50:34.539Z,98.30
2019-03-23T02:53:03.002Z,98.90
2019-03-23T02:55:31.491Z,98.70
2019-03-23T02:58:00.027Z,98.50
2019-03-23T03:00:28.505Z,98.80
2019-03-23T03:02:57.060Z,99.10
2019-03-23T03:05:25.607Z,99.00
2019-03-23T03:07:54.088Z,98.80
2019-03-23T03:10:41.875Z,98.60
2019-03-23T03:13:10.504Z,98.20
2019-03-23T03:15:39.043Z,98.50
2019-03-23T03:18:08.246Z,98.60
2019-03-23T03:20:36.776Z,98.80
2019-03-23T03:23:05.427Z,98.80
2019-03-23T03:25:33.991Z,99.00
2019-03-23T03:28:02.564Z,98.90
2019-03-23T03:30:31.074Z,99.00
2019-03-23T03:32:59.646Z,98.80
2019-03-23T03:35:28.189Z,98.50
2019-03-23T03:37:57.374Z,98.80
2019-03-23T03:40:26.227Z,98.60
2019-03-23T03:42:54.831Z,98.80
2019-03-23T03:45:25.545Z,98.80
2019-03-23T03:47:54.052Z,98.60
2019-03-23T03:50:22.581Z,98.70
2019-03-23T03:52:51.120Z,99.20
2019-03-23T03:55:19.659Z,99.40
2019-03-23T03:57:48.246Z,99.00
2019-03-23T04:00:16.853Z,98.40
2019-03-23T04:02:45.364Z,99.10
2019-03-23T04:05:14.140Z,99.00
2019-03-23T04:07:42.601Z,99.10
2019-03-23T04:10:11.318Z,98.50
2019-03-23T04:12:39.855Z,99.30
2019-03-23T04:15:10.568Z,99.00
2019-03-23T04:17:39.157Z,99.40
2019-03-23T04:20:09.421Z,99.30
2019-03-23T04:22:37.966Z,99.30
2019-03-23T04:25:07.794Z,99.40
2019-03-23T04:27:36.338Z,99.20
2019-03-23T04:30:07.404Z,98.90
2019-03-23T04:32:35.974Z,98.90
2019-03-23T04:35:05.878Z,98.90
2019-03-23T04:37:34.414Z,99.00
2019-03-23T04:40:03.001Z,99.30
2019-03-23T04:42:31.527Z,99.10
2019-03-23T04:44:59.997Z,99.40
2019-03-23T04:47:28.496Z,99.00
2019-03-23T04:49:56.969Z,98.60
2019-03-23T04:52:25.428Z,98.80
2019-03-23T04:54:53.931Z,99.10
2019-03-23T04:57:22.421Z,99.30
2019-03-23T04:59:50.961Z,99.40
2019-03-23T05:02:19.466Z,99.70
2019-03-23T05:04:47.987Z,99.40
2019-03-23T05:07:16.520Z,98.40
2019-03-23T05:09:45.016Z,98.60
2019-03-23T05:12:13.491Z,99.20
2019-03-23T05:14:41.951Z,99.40
2019-03-23T05:17:10.676Z,99.60
2019-03-23T05:19:39.222Z,99.40
2019-03-23T05:22:07.680Z,99.40
2019-03-23T05:24:36.264Z,99.80
2019-03-23T05:27:04.804Z,99.50
2019-03-23T05:29:33.270Z,99.70
2019-03-23T05:32:01.857Z,99.60
2019-03-23T05:34:30.391Z,99.50
2019-03-23T05:36:58.860Z,99.80
2019-03-23T05:39:27.447Z,99.90
2019-03-23T05:41:56.123Z,99.90
2019-03-23T05:44:24.587Z,99.90
2019-03-23T05:46:54.383Z,99.90
2019-03-23T05:49:23.121Z,99.90
2019-03-23T05:51:51.599Z,99.90
2019-03-23T05:54:20.105Z,99.70
2019-03-23T05:56:48.639Z,99.90
2019-03-23T05:59:17.114Z,99.60
2019-03-23T06:01:45.671Z,99.70
2019-03-23T06:04:14.173Z,99.60
2019-03-23T06:06:42.712Z,99.30
2019-03-23T06:09:11.211Z,99.40
2019-03-23T06:11:39.684Z,99.20
2019-03-23T06:14:08.155Z,99.00
2019-03-23T06:16:36.717Z,98.50
2019-03-23T06:19:05.526Z,98.30
2019-03-23T06:21:34.000Z,98.00
2019-03-23T06:24:02.710Z,97.80
2019-03-23T06:26:31.236Z,97.60
2019-03-23T06:28:59.698Z,97.50
2019-03-23T06:31:28.195Z,97.40
2019-03-23T06:33:56.655Z,96.80
2019-03-23T06:36:25.191Z,97.00
2019-03-23T06:38:53.775Z,96.80
2019-03-23T06:41:22.335Z,96.50
2019-03-23T06:43:50.867Z,96.10
2019-03-23T06:46:19.364Z,95.60
2019-03-23T06:48:47.833Z,96.00
2019-03-23T06:51:16.287Z,95.70
2019-03-23T06:53:44.858Z,95.80
2019-03-23T06:56:13.314Z,96.10
2019-03-23T06:58:41.780Z,96.30
2019-03-23T07:01:10.356Z,96.10
2019-03-23T07:03:38.822Z,96.50
2019-03-23T07:06:07.355Z,96.50
2019-03-23T07:08:35.863Z,96.20
2019-03-23T07:11:04.463Z,96.30
2019-03-23T07:13:32.923Z,96.20
2019-03-23T07:16:01.423Z,96.70
2019-03-23T07:18:29.960Z,97.40
2019-03-23T07:20:58.649Z,96.80
2019-03-23T07:23:27.259Z,97.20
2019-03-23T07:25:56.095Z,97.40
2019-03-23T07:28:24.560Z,97.50
2019-03-23T07:30:53.059Z,98.00
2019-03-23T07:33:21.601Z,97.20
2019-03-23T07:35:50.144Z,97.30
2019-03-23T07:38:18.765Z,97.00
2019-03-23T07:40:47.380Z,96.00
2019-03-23T07:43:15.835Z,96.20
2019-03-23T07:45:44.413Z,96.80
2019-03-23T07:48:12.878Z,96.20
2019-03-23T07:50:41.412Z,94.70
2019-03-23T07:53:09.979Z,94.60
2019-03-23T07:55:38.439Z,94.30
2019-03-23T07:58:08.248Z,93.70
2019-03-23T08:00:36.764Z,94.00
2019-03-23T08:03:05.235Z,93.00
2019-03-23T08:05:33.699Z,92.70
2019-03-23T08:08:02.196Z,92.90
2019-03-23T08:10:34.796Z,92.50
2019-03-23T08:13:03.408Z,90.60
2019-03-23T08:15:31.969Z,91.20
2019-03-23T08:18:00.516Z,91.50
2019-03-23T08:20:28.998Z,91.50
2019-03-23T08:22:57.747Z,91.60
2019-03-23T08:25:26.215Z,91.10
2019-03-23T08:27:54.741Z,91.50
2019-03-23T08:30:23.328Z,91.90
2019-03-23T08:32:51.791Z,92.10
2019-03-23T08:35:20.316Z,91.50
2019-03-23T08:37:48.851Z,91.70
2019-03-23T08:40:17.316Z,91.50
2019-03-23T08:42:45.783Z,90.80
2019-03-23T08:45:14.301Z,91.00
2019-03-23T08:47:42.839Z,90.40
2019-03-23T08:50:11.574Z,89.20
2019-03-23T08:52:40.105Z,89.10
2019-03-23T08:55:08.830Z,88.80
2019-03-23T08:57:37.295Z,88.50
2019-03-23T09:00:07.527Z,87.60
2019-03-23T09:02:36.019Z,87.20
2019-03-23T09:05:05.914Z,87.70
2019-03-23T09:07:34.491Z,85.90
2019-03-23T09:10:04.463Z,84.70
2019-03-23T09:12:32.944Z,83.80
2019-03-23T09:15:01.523Z,81.20
2019-03-23T09:17:30.051Z,78.90
2019-03-23T09:20:00.392Z,77.70
2019-03-23T09:22:29.029Z,77.00
2019-03-23T09:24:57.915Z,75.50
2019-03-23T09:27:26.428Z,73.80
2019-03-23T09:29:54.936Z,72.80
2019-03-23T09:32:23.475Z,71.70
2019-03-23T09:34:51.941Z,73.40
2019-03-23T09:37:20.532Z,73.10
2019-03-23T09:39:48.990Z,73.70
2019-03-23T09:42:17.455Z,73.50
2019-03-23T09:44:46.045Z,73.00
2019-03-23T09:47:14.586Z,73.70
2019-03-23T09:49:43.140Z,73.00
2019-03-23T09:52:11.706Z,74.80
2019-03-23T09:54:40.172Z,73.80
2019-03-23T09:57:09.206Z,71.40
2019-03-23T09:59:37.736Z,70.50
2019-03-23T10:02:06.469Z,69.60
2019-03-23T10:04:34.942Z,70.90
2019-03-23T10:07:03.507Z,68.80
2019-03-23T10:09:31.976Z,69.70
2019-03-23T10:12:00.450Z,69.00
2019-03-23T10:14:28.951Z,68.30
2019-03-23T10:16:57.433Z,64.00
2019-03-23T10:19:25.971Z,65.30
2019-03-23T10:21:54.554Z,65.30
2019-03-23T10:24:23.020Z,65.90
2019-03-23T10:26:52.344Z,62.90
2019-03-23T10:29:21.000Z,61.70
2019-03-23T10:31:49.475Z,63.30
2019-03-23T10:34:18.020Z,63.60
2019-03-23T10:36:46.520Z,64.20
2019-03-23T10:39:15.004Z,64.10
2019-03-23T10:41:43.548Z,61.20
2019-03-23T10:44:12.112Z,62.50
2019-03-23T10:46:40.583Z,58.10
2019-03-23T10:49:10.683Z,57.80
2019-03-23T10:51:39.374Z,58.40
2019-03-23T10:54:10.906Z,59.60
2019-03-23T10:56:40.987Z,60.20
2019-03-23T10:59:11.027Z,55.80
2019-03-23T11:01:42.147Z,56.60
2019-03-23T11:04:10.658Z,53.90
2019-03-23T11:06:39.227Z,52.60
2019-03-23T11:09:08.043Z,52.00
2019-03-23T11:11:36.504Z,51.70
2019-03-23T11:14:05.072Z,49.10
2019-03-23T11:16:33.531Z,52.60
2019-03-23T11:19:02.006Z,54.10
2019-03-23T11:21:30.519Z,55.30
2019-03-23T11:23:59.131Z,55.80
2019-03-23T11:26:28.191Z,53.60
2019-03-23T11:28:57.248Z,55.50
2019-03-23T11:31:25.708Z,52.10
2019-03-23T11:33:54.184Z,53.00
2019-03-23T11:36:22.769Z,53.90
2019-03-23T11:38:51.235Z,52.10
2019-03-23T11:41:19.772Z,52.70
2019-03-23T11:43:48.275Z,53.20
2019-03-23T11:46:17.121Z,52.30
2019-03-23T11:48:45.693Z,52.20
2019-03-23T11:51:14.219Z,51.60
2019-03-23T11:53:42.751Z,50.40
2019-03-23T11:56:11.221Z,50.60
2019-03-23T11:58:39.832Z,50.40
2019-03-23T12:01:08.309Z,50.70
2019-03-23T12:03:36.872Z,50.30
2019-03-23T12:06:05.375Z,50.90
2019-03-23T12:08:33.844Z,50.10
2019-03-23T12:11:03.240Z,50.50
2019-03-23T12:13:31.148Z,47.80
2019-03-23T12:15:59.680Z,48.20
2019-03-23T12:18:28.145Z,46.40
2019-03-23T12:20:56.900Z,44.50
2019-03-23T12:23:25.467Z,42.20
2019-03-23T12:25:54.037Z,43.50
2019-03-23T12:28:22.543Z,44.60
2019-03-23T12:30:51.252Z,45.10
2019-03-23T12:33:21.410Z,45.20
2019-03-23T12:35:50.174Z,43.40
2019-03-23T12:38:18.718Z,41.70
2019-03-23T12:40:47.255Z,39.70
2019-03-23T12:43:15.888Z,38.30
2019-03-23T12:45:44.351Z,38.40
2019-03-23T12:48:12.824Z,38.00
2019-03-23T12:50:41.423Z,39.60
2019-03-23T12:53:09.996Z,37.00
2019-03-23T12:55:38.462Z,40.00
2019-03-23T12:58:07.090Z,40.30
2019-03-23T13:00:35.650Z,37.50
2019-03-23T13:03:04.255Z,33.80
2019-03-23T13:05:32.753Z,36.60
2019-03-23T13:08:01.217Z,40.10
2019-03-23T13:10:29.751Z,39.40
2019-03-23T13:12:58.493Z,35.30
2019-03-23T13:15:26.999Z,35.60
2019-03-23T13:17:55.570Z,37.30
2019-03-23T13:20:26.726Z,34.80
2019-03-23T13:22:55.232Z,34.60
2019-03-23T13:25:23.698Z,34.30
2019-03-23T13:27:52.341Z,37.10
2019-03-23T13:30:20.900Z,36.50
2019-03-23T13:32:49.742Z,34.70
2019-03-23T13:35:18.236Z,33.30
2019-03-23T13:37:46.772Z,33.70
2019-03-23T13:40:15.315Z,32.80
2019-03-23T13:42:43.823Z,33.80
2019-03-23T13:45:12.537Z,34.80
2019-03-23T13:47:41.062Z,34.20
2019-03-23T13:50:10.717Z,35.60
2019-03-23T13:52:39.397Z,36.50
2019-03-23T13:55:09.952Z,35.60
2019-03-23T13:57:38.529Z,32.90
2019-03-23T14:00:07.800Z,33.70
2019-03-23T14:02:35.583Z,31.10
2019-03-23T14:05:12.255Z,32.20
2019-03-23T14:07:35.631Z,33.20
2019-03-23T14:10:05.445Z,34.00
2019-03-23T14:12:33.960Z,34.80
2019-03-23T14:15:02.507Z,34.40
2019-03-23T14:17:31.055Z,32.80
2019-03-23T14:19:59.628Z,30.70
2019-03-23T14:22:28.159Z,32.00
2019-03-23T14:24:56.711Z,34.40
2019-03-23T14:27:25.204Z,33.70
2019-03-23T14:29:53.663Z,33.10
2019-03-23T14:32:22.137Z,34.30
2019-03-23T14:34:50.818Z,34.10
2019-03-23T14:37:19.280Z,31.00
2019-03-23T14:39:47.752Z,30.70
2019-03-23T14:42:16.265Z,33.50
2019-03-23T14:44:44.724Z,34.00
2019-03-23T14:47:13.264Z,31.40
2019-03-23T14:49:41.760Z,29.80
2019-03-23T14:52:10.222Z,29.50
2019-03-23T14:54:38.768Z,30.00
2019-03-23T14:57:07.263Z,30.00
2019-03-23T14:59:35.763Z,31.00
2019-03-23T15:02:04.296Z,30.50
2019-03-23T15:04:32.861Z,32.70
2019-03-23T15:07:01.344Z,31.80
2019-03-23T15:09:29.892Z,31.30
2019-03-23T15:11:58.415Z,31.20
2019-03-23T15:14:26.958Z,31.00
2019-03-23T15:16:55.511Z,30.50
2019-03-23T15:19:24.249Z,31.00
2019-03-23T15:21:52.817Z,30.50
2019-03-23T15:24:21.402Z,28.30
2019-03-23T15:26:49.994Z,27.80
2019-03-23T15:29:18.547Z,27.00
2019-03-23T15:31:47.089Z,26.50
2019-03-23T15:34:15.713Z,26.20
2019-03-23T15:36:44.787Z,26.30
2019-03-23T15:39:13.253Z,27.20
2019-03-23T15:41:41.761Z,28.10
2019-03-23T15:44:10.300Z,28.80
2019-03-23T15:46:38.841Z,28.40
2019-03-23T15:49:07.407Z,29.80
2019-03-23T15:51:35.930Z,29.30
2019-03-23T15:54:04.536Z,29.10
2019-03-23T15:56:33.099Z,30.50
2019-03-23T15:59:01.565Z,32.80
2019-03-23T16:01:30.064Z,33.10
2019-03-23T16:03:58.563Z,34.60
2019-03-23T16:06:27.097Z,36.00
2019-03-23T16:08:55.556Z,34.20
2019-03-23T16:11:24.109Z,35.20
2019-03-23T16:13:52.696Z,35.10
2019-03-23T16:16:21.160Z,35.10
2019-03-23T16:18:49.724Z,37.10
2019-03-23T16:21:18.204Z,38.20
2019-03-23T16:23:46.701Z,40.00
2019-03-23T16:26:15.310Z,41.80
2019-03-23T16:28:43.848Z,42.90
2019-03-23T16:31:12.318Z,43.30
2019-03-23T16:33:40.820Z,44.30
2019-03-23T16:36:09.519Z,45.90
2019-03-23T16:38:38.192Z,46.60
2019-03-23T16:41:08.416Z,47.20
2019-03-23T16:43:36.884Z,49.00
2019-03-23T16:46:05.351Z,49.90
2019-03-23T16:48:33.856Z,51.30
2019-03-23T16:51:02.461Z,52.20
2019-03-23T16:53:30.925Z,52.80
2019-03-23T16:55:59.417Z,53.70
2019-03-23T16:58:27.896Z,54.10
2019-03-23T17:00:56.433Z,54.80
2019-03-23T17:03:25.083Z,55.70
2019-03-23T17:05:53.552Z,56.20
2019-03-23T17:08:22.022Z,56.70
2019-03-23T17:10:50.530Z,56.90
2019-03-23T17:13:19.065Z,58.20
2019-03-23T17:15:47.599Z,58.70
2019-03-23T17:18:16.165Z,58.90
2019-03-23T17:20:44.841Z,59.50
2019-03-23T17:23:13.308Z,59.60
2019-03-23T17:25:41.818Z,60.40
2019-03-23T17:28:10.357Z,60.50
2019-03-23T17:30:39.029Z,60.50
2019-03-23T17:33:08.975Z,61.10
2019-03-23T17:35:37.606Z,61.20
2019-03-23T17:38:06.228Z,61.00
2019-03-23T17:40:36.005Z,61.00
2019-03-23T17:43:06.124Z,62.20
2019-03-23T17:45:34.655Z,62.50
2019-03-23T17:48:03.237Z,62.70
2019-03-23T17:50:31.794Z,64.20
2019-03-23T17:53:00.327Z,63.60
2019-03-23T17:55:28.904Z,64.80
2019-03-23T17:57:57.444Z,65.30
2019-03-23T18:00:26.767Z,66.60
2019-03-23T18:02:55.336Z,69.20
2019-03-23T18:05:23.873Z,70.90
2019-03-23T18:07:52.336Z,70.10
2019-03-23T18:10:20.901Z,70.40
2019-03-23T18:12:49.408Z,71.60
2019-03-23T18:15:17.951Z,71.80
2019-03-23T18:17:46.451Z,71.90
2019-03-23T18:20:15.038Z,72.30
2019-03-23T18:22:43.536Z,71.80
2019-03-23T18:25:12.109Z,71.80
2019-03-23T18:27:40.577Z,72.20
2019-03-23T18:30:27.525Z,73.00
2019-03-23T18:32:55.999Z,73.60
2019-03-23T18:35:24.538Z,76.30
2019-03-23T18:37:53.048Z,77.20
2019-03-23T18:40:21.521Z,77.20
2019-03-23T18:42:50.382Z,75.90
2019-03-23T18:45:18.956Z,75.20
2019-03-23T18:47:47.491Z,76.10
2019-03-23T18:50:16.904Z,77.20
2019-03-23T18:52:45.435Z,76.60
2019-03-23T18:55:13.970Z,76.80
2019-03-23T18:57:47.679Z,77.40
2019-03-23T19:00:36.871Z,77.00
2019-03-23T19:03:05.787Z,77.10
2019-03-23T19:05:34.665Z,77.60
2019-03-23T19:08:03.389Z,78.10
2019-03-23T19:10:31.864Z,78.00
2019-03-23T19:13:00.477Z,79.70
2019-03-23T19:15:28.988Z,80.00
2019-03-23T19:17:57.479Z,80.50
2019-03-23T19:20:25.945Z,81.20
2019-03-23T19:22:54.456Z,81.30
2019-03-23T19:25:22.927Z,81.60
2019-03-23T19:27:51.385Z,81.30
2019-03-23T19:30:20.430Z,82.60
2019-03-23T19:32:48.902Z,81.50
2019-03-23T19:35:17.373Z,81.70
2019-03-23T19:37:45.871Z,81.80
2019-03-23T19:40:14.476Z,82.30
2019-03-23T19:42:42.977Z,81.90
2019-03-23T19:45:12.032Z,81.70
2019-03-23T19:47:40.626Z,82.10
2019-03-23T19:50:09.857Z,82.00
2019-03-23T19:52:38.508Z,82.80
2019-03-23T19:55:08.126Z,82.50
2019-03-23T19:57:35.864Z,82.50
2019-03-23T20:00:07.444Z,82.60
2019-03-23T20:02:35.981Z,82.50
2019-03-23T20:05:06.284Z,82.50
2019-03-23T20:07:34.952Z,82.50
2019-03-23T20:10:05.355Z,82.30
2019-03-23T20:12:33.870Z,83.10
2019-03-23T20:15:02.603Z,83.00
2019-03-23T20:17:31.072Z,83.70
2019-03-23T20:19:59.533Z,83.80
2019-03-23T20:22:28.060Z,84.20
2019-03-23T20:24:56.594Z,84.20
2019-03-23T20:27:25.167Z,85.50
2019-03-23T20:29:53.671Z,85.80
2019-03-23T20:32:22.213Z,87.20
2019-03-23T20:34:50.762Z,88.00
2019-03-23T20:37:19.374Z,87.70
2019-03-23T20:39:47.917Z,87.50
2019-03-23T20:42:16.567Z,87.10
2019-03-23T20:44:45.085Z,86.90
2019-03-23T20:47:14.809Z,87.40
2019-03-23T20:49:42.957Z,87.40
2019-03-23T20:52:11.460Z,86.90
2019-03-23T20:54:40.006Z,87.20
2019-03-23T20:57:08.483Z,87.10
2019-03-23T20:59:36.994Z,86.90
2019-03-23T21:02:05.548Z,87.50
2019-03-23T21:04:34.023Z,88.00
2019-03-23T21:07:02.546Z,88.30
2019-03-23T21:09:31.021Z,88.30
2019-03-23T21:11:59.571Z,88.20
2019-03-23T21:14:28.148Z,88.10
2019-03-23T21:16:56.704Z,86.80
2019-03-23T21:19:25.225Z,87.40
2019-03-23T21:21:53.819Z,88.60
2019-03-23T21:24:22.296Z,88.70
2019-03-23T21:26:50.872Z,88.80
2019-03-23T21:29:19.451Z,89.10
2019-03-23T21:31:47.995Z,88.80
2019-03-23T21:34:16.463Z,89.70
2019-03-23T21:36:44.963Z,90.20
2019-03-23T21:39:13.435Z,90.20
2019-03-23T21:41:41.908Z,90.00
2019-03-23T21:44:10.423Z,89.60
2019-03-23T21:46:38.958Z,90.00
2019-03-23T21:49:07.691Z,90.20
2019-03-23T21:51:36.203Z,90.00
2019-03-23T21:54:04.939Z,90.60
2019-03-23T21:56:33.463Z,90.40
2019-03-23T21:59:01.978Z,90.50
2019-03-23T22:01:30.437Z,90.90
2019-03-23T22:03:58.905Z,91.40
2019-03-23T22:06:27.492Z,92.20
2019-03-23T22:08:55.980Z,92.60
2019-03-23T22:11:24.511Z,92.60
2019-03-23T22:13:53.016Z,92.20
2019-03-23T22:16:21.475Z,91.60
2019-03-23T22:18:49.953Z,91.70
2019-03-23T22:21:18.527Z,91.20
2019-03-23T22:23:46.996Z,91.80
2019-03-23T22:26:15.461Z,91.60
2019-03-23T22:28:43.967Z,91.50
2019-03-23T22:31:12.443Z,91.70
2019-03-23T22:33:40.912Z,92.00
2019-03-23T22:36:09.427Z,92.00
2019-03-23T22:38:37.892Z,91.90
2019-03-23T22:41:06.355Z,92.20
2019-03-23T22:43:34.948Z,91.60
2019-03-23T22:46:03.571Z,91.20
2019-03-23T22:48:32.206Z,91.70
2019-03-23T22:51:00.989Z,92.00
2019-03-23T22:53:29.523Z,91.90
2019-03-23T22:55:57.992Z,92.40
2019-03-23T22:58:26.787Z,92.80
2019-03-23T23:00:58.446Z,92.80
2019-03-23T23:03:27.019Z,92.70
2019-03-23T23:05:55.699Z,92.50
2019-03-23T23:08:24.161Z,92.50
2019-03-23T23:10:52.629Z,91.60
2019-03-23T23:13:21.129Z,90.90
2019-03-23T23:15:49.605Z,92.30
2019-03-23T23:18:18.143Z,92.80
2019-03-23T23:20:46.635Z,92.20
2019-03-23T23:23:15.116Z,92.70
2019-03-23T23:25:43.676Z,92.50
2019-03-23T23:28:12.175Z,92.70
2019-03-23T23:30:40.724Z,92.00
2019-03-23T23:33:09.339Z,91.80
2019-03-23T23:35:37.839Z,91.50
2019-03-23T23:38:06.307Z,90.60
2019-03-23T23:40:34.916Z,90.80
2019-03-23T23:43:03.428Z,90.40
2019-03-23T23:45:31.965Z,90.70
2019-03-23T23:48:00.432Z,90.20
2019-03-23T23:50:28.951Z,90.20
2019-03-23T23:52:57.682Z,90.00
2019-03-23T23:55:26.295Z,90.30
2019-03-23T23:57:54.791Z,90.70
